createdAt,value
2023-05-22T13:12:22.257Z,22.15
2023-05-22T13:13:24.161Z,22.17
2023-05-22T13:14:24.989Z,22.12
2023-05-22T13:15:26.326Z,22.02
2023-05-22T13:16:26.467Z,22.06
2023-05-22T13:17:27.238Z,22.06
2023-05-22T13:18:28.009Z,22.01
2023-05-22T13:19:28.801Z,22.01
2023-05-22T13:20:29.567Z,22.02
2023-05-22T13:21:30.298Z,22.01
2023-05-22T13:22:31.253Z,22.05
2023-05-22T13:25:05.936Z,22.04
2023-05-22T13:26:07.820Z,22.09
2023-05-22T13:27:08.820Z,22.12
2023-05-22T13:28:09.534Z,22.12
2023-05-22T13:29:10.287Z,22.14
2023-05-22T13:30:11.094Z,22.14
2023-05-22T13:31:11.822Z,22.19
2023-05-22T13:32:12.585Z,22.12
2023-05-22T13:33:13.367Z,22.19
2023-05-22T13:34:14.119Z,22.20
2023-05-22T13:35:14.815Z,22.20
2023-05-22T13:36:15.520Z,22.20
2023-05-22T13:37:16.305Z,22.23
2023-05-22T13:38:17.048Z,22.23
2023-05-22T13:39:17.752Z,22.27
2023-05-22T13:40:18.489Z,22.27
2023-05-22T13:41:19.265Z,22.30
2023-05-22T13:42:20.022Z,22.33
2023-05-22T13:43:20.778Z,22.29
2023-05-22T13:44:21.494Z,22.30
2023-05-22T13:45:22.199Z,22.36
2023-05-22T13:46:23.012Z,22.33
2023-05-22T13:47:23.992Z,22.30
2023-05-22T13:48:24.836Z,22.29
2023-05-22T13:49:25.564Z,22.36
2023-05-22T13:50:26.301Z,22.31
2023-05-22T13:51:27.127Z,22.31
2023-05-22T13:52:28.011Z,22.29
2023-05-22T13:53:28.800Z,22.30
2023-05-22T13:54:29.535Z,22.30
2023-05-22T13:55:30.231Z,22.33
2023-05-22T13:56:30.991Z,22.31
2023-05-22T13:57:31.704Z,22.29
2023-05-22T13:58:32.418Z,22.30
2023-05-22T13:59:33.146Z,22.30
2023-05-22T14:00:33.840Z,22.31
2023-05-22T14:01:34.689Z,22.30
2023-05-22T14:02:35.700Z,22.30
2023-05-22T14:03:36.527Z,22.29
2023-05-22T14:04:37.244Z,22.29
2023-05-22T14:05:38.296Z,22.26
2023-05-22T14:06:38.596Z,22.29
2023-05-22T14:07:39.330Z,22.21
2023-05-22T14:08:40.035Z,22.24
2023-05-22T14:09:40.754Z,22.26
2023-05-22T14:10:41.492Z,22.21
2023-05-22T14:11:42.218Z,22.21
2023-05-22T14:12:42.979Z,22.19
2023-05-22T14:13:43.690Z,22.19
2023-05-22T14:14:44.526Z,22.17
2023-05-22T14:15:45.250Z,22.20
2023-05-22T14:16:46.031Z,22.20
2023-05-22T14:17:46.759Z,22.24
2023-05-22T14:18:47.510Z,22.19
2023-05-22T14:19:48.286Z,22.20
2023-05-22T14:20:49.013Z,22.17
2023-05-22T14:21:49.916Z,22.20
2023-05-22T14:22:57.843Z,22.14
2023-05-22T14:23:51.641Z,22.15
2023-05-22T14:24:52.364Z,22.17
2023-05-22T14:25:53.066Z,22.12
2023-05-22T14:26:53.762Z,22.11
2023-05-22T14:27:54.677Z,22.08
2023-05-22T14:28:55.398Z,22.09
2023-05-22T14:29:56.096Z,22.05
2023-05-22T14:30:56.846Z,22.05
2023-05-22T14:31:57.667Z,22.02
2023-05-22T14:32:58.480Z,22.01
2023-05-22T14:33:59.338Z,21.99
2023-05-22T14:35:00.046Z,21.94
2023-05-22T14:36:00.791Z,21.98
2023-05-22T14:37:01.519Z,21.99
2023-05-22T14:38:02.256Z,21.93
2023-05-22T14:39:02.959Z,21.91
2023-05-22T14:40:04.113Z,21.91
2023-05-22T14:41:04.278Z,21.89
2023-05-22T14:42:05.009Z,21.86
2023-05-22T14:43:05.760Z,21.90
2023-05-22T14:44:06.461Z,21.86
2023-05-22T14:45:07.195Z,21.86
2023-05-22T14:46:07.917Z,21.82
2023-05-22T14:47:08.634Z,21.81
2023-05-22T14:48:10.947Z,21.82
2023-05-22T14:49:10.195Z,21.77
2023-05-22T14:50:19.213Z,21.74
2023-05-22T14:51:11.914Z,21.79
2023-05-22T14:52:12.679Z,21.74
2023-05-22T14:53:13.401Z,21.71
2023-05-22T14:54:15.632Z,21.73
2023-05-22T14:55:14.807Z,21.73
2023-05-22T14:56:15.518Z,21.73
2023-05-22T14:57:16.294Z,21.68
2023-05-22T14:58:17.023Z,21.68
2023-05-22T14:59:17.725Z,21.64
2023-05-22T15:00:18.429Z,21.66
2023-05-22T15:01:19.214Z,21.61
2023-05-22T15:02:19.905Z,21.61
2023-05-22T15:03:20.672Z,21.61
2023-05-22T15:04:21.522Z,21.58
2023-05-22T15:05:22.395Z,21.59
2023-05-22T15:06:23.119Z,21.59
2023-05-22T15:07:29.267Z,21.58
2023-05-22T15:08:24.924Z,21.52
2023-05-22T15:09:25.628Z,21.53
2023-05-22T15:10:26.357Z,21.52
2023-05-22T15:11:27.230Z,21.48
2023-05-22T15:12:27.937Z,21.48
2023-05-22T15:13:28.638Z,21.48
2023-05-22T15:14:29.354Z,21.49
2023-05-22T15:15:30.099Z,21.45
2023-05-22T15:16:30.878Z,21.43
2023-05-22T15:17:31.598Z,21.46
2023-05-22T15:18:32.290Z,21.42
2023-05-22T15:19:33.315Z,21.48
2023-05-22T15:20:34.139Z,21.49
2023-05-22T15:21:34.859Z,21.48
2023-05-22T15:22:35.577Z,21.48
2023-05-22T15:23:36.313Z,21.48
2023-05-22T15:24:37.074Z,21.48
2023-05-22T15:25:37.860Z,21.45
2023-05-22T15:26:38.619Z,21.46
2023-05-22T15:27:39.372Z,21.45
2023-05-22T15:28:40.115Z,21.45
2023-05-22T15:29:40.853Z,21.48
2023-05-22T15:30:41.592Z,21.45
2023-05-22T15:31:42.351Z,21.43
2023-05-22T15:32:43.081Z,21.43
2023-05-22T15:33:43.846Z,21.38
2023-05-22T15:34:44.541Z,21.37
2023-05-22T15:35:45.252Z,21.40
2023-05-22T15:36:45.987Z,21.42
2023-05-22T15:37:46.702Z,21.40
2023-05-22T15:38:47.570Z,21.37
2023-05-22T15:39:48.294Z,21.33
2023-05-22T15:40:49.026Z,21.34
2023-05-22T15:42:02.397Z,21.36
2023-05-22T15:42:50.755Z,21.33
2023-05-22T15:43:51.457Z,21.31
2023-05-22T15:44:52.165Z,21.33
2023-05-22T15:45:52.931Z,21.31
2023-05-22T15:46:53.654Z,21.31
2023-05-22T15:47:54.471Z,21.31
2023-05-22T15:48:55.180Z,21.34
2023-05-22T15:49:55.908Z,21.34
2023-05-22T15:50:56.608Z,21.30
2023-05-22T15:51:57.365Z,21.27
2023-05-22T15:52:58.110Z,21.27
2023-05-22T15:53:58.820Z,21.27
2023-05-22T15:54:59.513Z,21.22
2023-05-22T15:56:00.231Z,21.21
2023-05-22T15:57:00.948Z,21.19
2023-05-22T15:58:01.665Z,21.18
2023-05-22T15:59:02.547Z,21.16
2023-05-22T16:00:03.257Z,21.11
2023-05-22T16:01:04.019Z,21.09
2023-05-22T16:02:04.720Z,21.11
2023-05-22T16:03:05.564Z,21.12
2023-05-22T16:04:06.284Z,21.11
2023-05-22T16:05:06.986Z,21.15
2023-05-22T16:06:07.746Z,21.13
2023-05-22T16:07:08.470Z,21.16
2023-05-22T16:08:09.245Z,21.19
2023-05-22T16:10:04.803Z,21.16
2023-05-22T16:11:06.703Z,21.15
2023-05-22T16:12:07.495Z,21.15
2023-05-22T16:13:08.216Z,21.16
2023-05-22T16:14:08.924Z,21.18
2023-05-22T16:15:09.691Z,21.19
2023-05-22T16:16:10.602Z,21.18
2023-05-22T16:17:11.333Z,21.21
2023-05-22T16:18:12.065Z,21.18
2023-05-22T16:19:12.821Z,21.18
2023-05-22T16:20:13.976Z,21.18
2023-05-22T16:21:14.698Z,21.12
2023-05-22T16:22:15.411Z,21.13
2023-05-22T16:23:16.149Z,21.15
2023-05-22T16:24:16.949Z,21.15
2023-05-22T16:25:17.755Z,21.13
2023-05-22T16:26:18.522Z,21.12
2023-05-22T16:27:19.271Z,21.13
2023-05-22T16:28:19.971Z,21.13
2023-05-22T16:29:20.708Z,21.12
2023-05-22T16:30:21.449Z,21.06
2023-05-22T16:31:22.188Z,21.09
2023-05-22T16:32:23.058Z,21.12
2023-05-22T16:33:23.779Z,21.05
2023-05-22T16:34:24.537Z,21.03
2023-05-22T16:35:25.255Z,21.03
2023-05-22T16:36:27.250Z,21.01
2023-05-22T16:37:26.957Z,21.03
2023-05-22T16:38:27.683Z,21.05
2023-05-22T16:39:28.420Z,20.97
2023-05-22T16:40:29.125Z,20.98
2023-05-22T16:41:29.842Z,20.96
2023-05-22T16:42:30.681Z,20.98
2023-05-22T16:43:31.407Z,20.97
2023-05-22T16:44:32.112Z,20.93
2023-05-22T16:45:32.847Z,20.96
2023-05-22T16:46:33.582Z,20.97
2023-05-22T16:47:34.392Z,20.90
2023-05-22T16:48:35.146Z,20.91
2023-05-22T16:49:35.905Z,20.93
2023-05-22T16:50:36.582Z,20.91
2023-05-22T16:51:37.302Z,20.94
2023-05-22T16:52:38.047Z,20.91
2023-05-22T16:53:39.481Z,20.93
2023-05-22T16:54:40.371Z,20.94
2023-05-22T16:55:40.817Z,20.96
2023-05-22T16:56:41.117Z,20.97
2023-05-22T16:57:41.837Z,20.96
2023-05-22T16:58:42.636Z,20.97
2023-05-22T16:59:43.469Z,20.94
2023-05-22T17:00:44.293Z,20.94
2023-05-22T17:01:45.055Z,20.91
2023-05-22T17:02:45.910Z,20.91
2023-05-22T17:03:46.719Z,20.90
2023-05-22T17:04:47.427Z,20.90
2023-05-22T17:05:48.111Z,20.90
2023-05-22T17:06:48.940Z,20.91
2023-05-22T17:07:49.651Z,20.94
2023-05-22T17:08:50.381Z,20.90
2023-05-22T17:09:51.123Z,20.90
2023-05-22T17:10:51.838Z,20.90
2023-05-22T17:11:52.550Z,20.91
2023-05-22T17:12:53.267Z,20.88
2023-05-22T17:13:54.028Z,20.88
2023-05-22T17:14:54.741Z,20.90
2023-05-22T17:15:55.536Z,20.90
2023-05-22T17:16:56.336Z,20.90
2023-05-22T17:17:57.108Z,20.91
2023-05-22T17:18:57.825Z,20.87
2023-05-22T17:19:58.524Z,20.81
2023-05-22T17:20:59.240Z,20.88
2023-05-22T17:21:59.971Z,20.85
2023-05-22T17:23:00.699Z,20.82
2023-05-22T17:24:01.438Z,20.87
2023-05-22T17:25:02.220Z,20.87
2023-05-22T17:26:02.947Z,20.85
2023-05-22T17:27:03.706Z,20.83
2023-05-22T17:28:04.416Z,20.79
2023-05-22T17:29:05.133Z,20.83
2023-05-22T17:30:05.877Z,20.82
2023-05-22T17:31:06.590Z,20.87
2023-05-22T17:32:07.364Z,20.79
2023-05-22T17:33:08.143Z,20.85
2023-05-22T17:34:08.843Z,20.79
2023-05-22T17:35:09.569Z,20.85
2023-05-22T17:36:10.306Z,20.82
2023-05-22T17:37:11.617Z,20.76
2023-05-22T17:38:11.777Z,20.78
2023-05-22T17:39:12.502Z,20.79
2023-05-22T17:40:13.226Z,20.76
2023-05-22T17:41:13.957Z,20.76
2023-05-22T17:42:14.656Z,20.76
2023-05-22T17:43:15.371Z,20.76
2023-05-22T17:44:16.104Z,20.75
2023-05-22T17:45:16.833Z,20.73
2023-05-22T17:46:17.566Z,20.76
2023-05-22T17:47:18.287Z,20.73
2023-05-22T17:48:19.009Z,20.75
2023-05-22T17:49:19.748Z,20.75
2023-05-22T17:50:20.454Z,20.73
2023-05-22T17:51:21.164Z,20.71
2023-05-22T17:52:21.883Z,20.75
2023-05-22T17:53:22.660Z,20.69
2023-05-22T17:54:23.381Z,20.72
2023-05-22T17:55:24.107Z,20.69
2023-05-22T17:56:24.943Z,20.66
2023-05-22T17:57:25.634Z,20.69
2023-05-22T17:58:26.369Z,20.69
2023-05-22T17:59:27.099Z,20.68
2023-05-22T18:00:27.815Z,20.66
2023-05-22T18:01:28.542Z,20.64
2023-05-22T18:02:29.557Z,20.63
2023-05-22T18:03:30.443Z,20.61
2023-05-22T18:04:31.226Z,20.66
2023-05-22T18:05:31.947Z,20.66
2023-05-22T18:06:32.735Z,20.63
2023-05-22T18:07:33.493Z,20.61
2023-05-22T18:08:34.221Z,20.58
2023-05-22T18:09:34.934Z,20.54
2023-05-22T18:10:35.643Z,20.54
2023-05-22T18:11:36.353Z,20.57
2023-05-22T18:12:38.280Z,20.51
2023-05-22T18:13:37.544Z,20.54
2023-05-22T18:14:38.253Z,20.56
2023-05-22T18:15:39.004Z,20.56
2023-05-22T18:16:39.803Z,20.50
2023-05-22T18:17:40.552Z,20.50
2023-05-22T18:18:41.340Z,20.53
2023-05-22T18:19:42.048Z,20.46
2023-05-22T18:20:42.943Z,20.44
2023-05-22T18:21:43.691Z,20.48
2023-05-22T18:22:44.406Z,20.42
2023-05-22T18:23:45.155Z,20.48
2023-05-22T18:24:45.839Z,20.46
2023-05-22T18:25:46.568Z,20.41
2023-05-22T18:26:47.285Z,20.41
2023-05-22T18:27:48.054Z,20.46
2023-05-22T18:28:48.769Z,20.41
2023-05-22T18:29:49.616Z,20.41
2023-05-22T18:30:50.348Z,20.40
2023-05-22T18:31:51.114Z,20.41
2023-05-22T18:32:51.929Z,20.35
2023-05-22T18:33:52.724Z,20.37
2023-05-22T18:34:53.451Z,20.37
2023-05-22T18:35:54.345Z,20.40
2023-05-22T18:36:55.050Z,20.35
2023-05-22T18:37:55.758Z,20.38
2023-05-22T18:38:56.465Z,20.38
2023-05-22T18:39:57.181Z,20.30
2023-05-22T18:40:57.898Z,20.33
2023-05-22T18:41:58.722Z,20.34
2023-05-22T18:42:59.416Z,20.30
2023-05-22T18:44:00.127Z,20.23
2023-05-22T18:45:00.864Z,20.33
2023-05-22T18:46:01.572Z,20.27
2023-05-22T18:47:02.326Z,20.27
2023-05-22T18:48:03.147Z,20.25
2023-05-22T18:49:04.047Z,20.22
2023-05-22T18:50:04.775Z,20.26
2023-05-22T18:51:05.473Z,20.23
2023-05-22T18:52:06.242Z,20.19
2023-05-22T18:53:06.984Z,20.25
2023-05-22T18:54:07.696Z,20.17
2023-05-22T18:55:08.412Z,20.16
2023-05-22T18:56:09.134Z,20.17
2023-05-22T18:57:09.894Z,20.19
2023-05-22T18:58:10.615Z,20.16
2023-05-22T18:59:11.364Z,20.12
2023-05-22T19:00:12.112Z,20.15
2023-05-22T19:01:12.826Z,20.12
2023-05-22T19:02:13.555Z,20.07
2023-05-22T19:03:14.336Z,20.05
2023-05-22T19:04:15.112Z,20.05
2023-05-22T19:05:15.929Z,20.01
2023-05-22T19:06:16.613Z,20.00
2023-05-22T19:07:17.345Z,20.02
2023-05-22T19:08:18.016Z,19.98
2023-05-22T19:09:18.758Z,20.00
2023-05-22T19:10:19.498Z,20.00
2023-05-22T19:11:20.261Z,19.94
2023-05-22T19:12:20.990Z,19.97
2023-05-22T19:13:21.741Z,19.97
2023-05-22T19:14:22.505Z,19.90
2023-05-22T19:15:23.209Z,19.89
2023-05-22T19:16:23.915Z,19.90
2023-05-22T19:17:24.697Z,19.90
2023-05-22T19:18:25.397Z,19.89
2023-05-22T19:19:26.239Z,19.86
2023-05-22T19:20:26.940Z,19.82
2023-05-22T19:21:27.672Z,19.85
2023-05-22T19:22:28.407Z,19.83
2023-05-22T19:23:29.142Z,19.78
2023-05-22T19:24:29.868Z,19.82
2023-05-22T19:25:39.607Z,19.78
2023-05-22T19:26:31.984Z,19.82
2023-05-22T19:27:41.261Z,19.79
2023-05-22T19:28:33.031Z,19.71
2023-05-22T19:29:41.847Z,19.78
2023-05-22T19:30:33.949Z,19.78
2023-05-22T19:31:34.838Z,19.75
2023-05-22T19:32:35.597Z,19.72
2023-05-22T19:33:36.290Z,19.72
2023-05-22T19:34:37.028Z,19.72
2023-05-22T19:35:37.919Z,19.67
2023-05-22T19:36:38.645Z,19.71
2023-05-22T19:37:39.348Z,19.67
